sim
Sign-in with your pilot id or email,
or register
Callsign
Passwort

Schedule Details

Flight Number: DLH1625
Departure: Krakow John Paul II International Airport (EPKK) at 16:20
Arrival: Munich Airport (EDDM) at 17:40
Route: Lufthansa Passenger Schedule. Enter filed route here before submitting Pirep.

Weather Information
Getting current METAR information for EPKK 241730Z VRB01KT 9999 SCT040 19/15 Q1009
Getting current METAR information for EDDM 241720Z 08005KT CAVOK 18/13 Q1006 NOSIG

Schedule Frequency

Route Map